Terminal Aerodrome Forecast
Issued by NWS

Current Version | Previous Version | Graphics & Text | Print | Product List | Glossary On
Versions: 1 2 3 4 5 6 7 8 9 10 11 12 13 14 15 16 17 18 19 20 21
000
FTUS41 KILN 190542
TAFLUK
TAF
KLUK 190542Z 1906/2006 24004KT P6SM OVC016
      TEMPO 1906/1908 5SM BR OVC009
     FM190800 24005KT 5SM BR OVC012
     FM191000 VRB03KT 2SM BR OVC009
     FM191500 26005KT P6SM BKN015
     FM192000 23006KT P6SM SCT025
     FM200000 22003KT P6SM SCT250
     FM200500 00000KT 4SM BR SCT250=

USA.gov is the U.S. government's official web portal to all federal, state and local government web resources and services.